sensor_id;sensor_type;location;lat;lon;timestamp;P1;durP1;ratioP1;P2;durP2;ratioP2
15899;SDS011;8048;50.644;6.184;2023-04-15T00:01:29;2.87;;;2.20;;
15899;SDS011;8048;50.644;6.184;2023-04-15T00:03:57;2.47;;;2.27;;
15899;SDS011;8048;50.644;6.184;2023-04-15T00:06:23;2.87;;;2.30;;
15899;SDS011;8048;50.644;6.184;2023-04-15T00:08:48;2.10;;;2.00;;
15899;SDS011;8048;50.644;6.184;2023-04-15T00:11:17;1.60;;;1.50;;
15899;SDS011;8048;50.644;6.184;2023-04-15T00:13:43;2.30;;;2.20;;
15899;SDS011;8048;50.644;6.184;2023-04-15T00:16:09;6.40;;;2.50;;
15899;SDS011;8048;50.644;6.184;2023-04-15T00:18:35;3.43;;;2.60;;
15899;SDS011;8048;50.644;6.184;2023-04-15T00:21:02;2.77;;;2.63;;
15899;SDS011;8048;50.644;6.184;2023-04-15T00:23:28;2.83;;;2.20;;
15899;SDS011;8048;50.644;6.184;2023-04-15T00:25:54;2.40;;;2.30;;
15899;SDS011;8048;50.644;6.184;2023-04-15T00:28:20;6.40;;;2.20;;
15899;SDS011;8048;50.644;6.184;2023-04-15T00:30:46;2.87;;;2.53;;
15899;SDS011;8048;50.644;6.184;2023-04-15T00:33:12;3.30;;;2.97;;
15899;SDS011;8048;50.644;6.184;2023-04-15T00:35:38;16.00;;;9.60;;
15899;SDS011;8048;50.644;6.184;2023-04-15T00:38:04;7.77;;;3.70;;
15899;SDS011;8048;50.644;6.184;2023-04-15T00:40:31;3.37;;;3.07;;
15899;SDS011;8048;50.644;6.184;2023-04-15T00:42:57;3.07;;;2.87;;
15899;SDS011;8048;50.644;6.184;2023-04-15T00:45:23;3.23;;;2.73;;
15899;SDS011;8048;50.644;6.184;2023-04-15T00:47:49;3.13;;;2.93;;
15899;SDS011;8048;50.644;6.184;2023-04-15T00:50:15;3.17;;;2.97;;
15899;SDS011;8048;50.644;6.184;2023-04-15T00:52:40;14.13;;;10.90;;
15899;SDS011;8048;50.644;6.184;2023-04-15T00:55:08;3.33;;;3.10;;
15899;SDS011;8048;50.644;6.184;2023-04-15T00:57:34;3.60;;;3.30;;
15899;SDS011;8048;50.644;6.184;2023-04-15T01:00:00;4.23;;;3.43;;
15899;SDS011;8048;50.644;6.184;2023-04-15T01:02:26;2.60;;;2.40;;
15899;SDS011;8048;50.644;6.184;2023-04-15T01:04:52;3.67;;;3.30;;
15899;SDS011;8048;50.644;6.184;2023-04-15T01:07:18;2.93;;;2.80;;
15899;SDS011;8048;50.644;6.184;2023-04-15T01:09:44;2.63;;;2.43;;
15899;SDS011;8048;50.644;6.184;2023-04-15T01:12:11;2.30;;;2.20;;
15899;SDS011;8048;50.644;6.184;2023-04-15T01:14:38;3.17;;;2.87;;
15899;SDS011;8048;50.644;6.184;2023-04-15T01:17:03;4.43;;;2.70;;
15899;SDS011;8048;50.644;6.184;2023-04-15T01:19:29;4.07;;;3.13;;
15899;SDS011;8048;50.644;6.184;2023-04-15T01:21:55;4.63;;;4.40;;
15899;SDS011;8048;50.644;6.184;2023-04-15T01:24:21;2.00;;;1.90;;
15899;SDS011;8048;50.644;6.184;2023-04-15T01:26:47;2.60;;;2.40;;
15899;SDS011;8048;50.644;6.184;2023-04-15T01:29:14;1.90;;;1.80;;
15899;SDS011;8048;50.644;6.184;2023-04-15T01:31:40;2.00;;;1.60;;
15899;SDS011;8048;50.644;6.184;2023-04-15T01:34:16;2.17;;;1.60;;
15899;SDS011;8048;50.644;6.184;2023-04-15T01:36:42;5.73;;;1.77;;
15899;SDS011;8048;50.644;6.184;2023-04-15T01:39:07;2.20;;;2.00;;
15899;SDS011;8048;50.644;6.184;2023-04-15T01:41:33;3.03;;;2.10;;
15899;SDS011;8048;50.644;6.184;2023-04-15T01:43:59;1.60;;;1.50;;
15899;SDS011;8048;50.644;6.184;2023-04-15T01:46:24;1.90;;;1.60;;
15899;SDS011;8048;50.644;6.184;2023-04-15T01:48:50;2.10;;;1.90;;
15899;SDS011;8048;50.644;6.184;2023-04-15T01:51:16;3.40;;;1.50;;
15899;SDS011;8048;50.644;6.184;2023-04-15T01:53:41;1.40;;;1.40;;
15899;SDS011;8048;50.644;6.184;2023-04-15T01:56:07;4.00;;;2.33;;
15899;SDS011;8048;50.644;6.184;2023-04-15T01:58:33;2.00;;;1.80;;
15899;SDS011;8048;50.644;6.184;2023-04-15T02:00:58;1.90;;;1.33;;
15899;SDS011;8048;50.644;6.184;2023-04-15T02:03:24;1.77;;;1.67;;
15899;SDS011;8048;50.644;6.184;2023-04-15T02:05:49;6.03;;;4.80;;
15899;SDS011;8048;50.644;6.184;2023-04-15T02:08:15;28.17;;;16.17;;
15899;SDS011;8048;50.644;6.184;2023-04-15T02:10:41;17.43;;;10.47;;
15899;SDS011;8048;50.644;6.184;2023-04-15T02:13:07;3.63;;;2.00;;
15899;SDS011;8048;50.644;6.184;2023-04-15T02:15:33;2.27;;;1.93;;
15899;SDS011;8048;50.644;6.184;2023-04-15T02:17:58;4.30;;;1.60;;
15899;SDS011;8048;50.644;6.184;2023-04-15T02:20:25;2.33;;;1.27;;
15899;SDS011;8048;50.644;6.184;2023-04-15T02:22:51;2.37;;;1.90;;
15899;SDS011;8048;50.644;6.184;2023-04-15T02:25:17;2.50;;;2.30;;
15899;SDS011;8048;50.644;6.184;2023-04-15T02:27:42;5.40;;;4.77;;
15899;SDS011;8048;50.644;6.184;2023-04-15T02:30:08;3.70;;;3.40;;
15899;SDS011;8048;50.644;6.184;2023-04-15T02:32:34;5.23;;;3.43;;
15899;SDS011;8048;50.644;6.184;2023-04-15T02:35:05;6.10;;;5.50;;
15899;SDS011;8048;50.644;6.184;2023-04-15T02:37:33;4.73;;;3.63;;
15899;SDS011;8048;50.644;6.184;2023-04-15T02:40:05;3.00;;;2.70;;
15899;SDS011;8048;50.644;6.184;2023-04-15T02:42:33;7.50;;;3.13;;
15899;SDS011;8048;50.644;6.184;2023-04-15T02:44:59;1.77;;;1.67;;
15899;SDS011;8048;50.644;6.184;2023-04-15T02:47:24;2.40;;;2.20;;
15899;SDS011;8048;50.644;6.184;2023-04-15T02:49:51;2.30;;;2.20;;
15899;SDS011;8048;50.644;6.184;2023-04-15T02:52:16;2.07;;;1.97;;
15899;SDS011;8048;50.644;6.184;2023-04-15T02:54:42;2.17;;;2.07;;
15899;SDS011;8048;50.644;6.184;2023-04-15T02:57:07;11.93;;;8.53;;
15899;SDS011;8048;50.644;6.184;2023-04-15T02:59:34;7.43;;;4.37;;
15899;SDS011;8048;50.644;6.184;2023-04-15T03:02:00;2.13;;;2.00;;
15899;SDS011;8048;50.644;6.184;2023-04-15T03:04:26;4.50;;;2.40;;
15899;SDS011;8048;50.644;6.184;2023-04-15T03:06:54;3.33;;;2.50;;
15899;SDS011;8048;50.644;6.184;2023-04-15T03:09:20;1.50;;;1.40;;
15899;SDS011;8048;50.644;6.184;2023-04-15T03:11:46;1.97;;;1.40;;
15899;SDS011;8048;50.644;6.184;2023-04-15T03:14:11;1.60;;;1.50;;
15899;SDS011;8048;50.644;6.184;2023-04-15T03:16:37;1.80;;;1.70;;
15899;SDS011;8048;50.644;6.184;2023-04-15T03:19:02;2.80;;;1.33;;
15899;SDS011;8048;50.644;6.184;2023-04-15T03:21:28;4.40;;;2.10;;
15899;SDS011;8048;50.644;6.184;2023-04-15T03:23:53;1.30;;;1.30;;
15899;SDS011;8048;50.644;6.184;2023-04-15T03:26:27;2.00;;;1.80;;
15899;SDS011;8048;50.644;6.184;2023-04-15T03:28:55;1.50;;;1.40;;
15899;SDS011;8048;50.644;6.184;2023-04-15T03:31:22;1.70;;;1.60;;
15899;SDS011;8048;50.644;6.184;2023-04-15T03:33:47;2.13;;;1.70;;
15899;SDS011;8048;50.644;6.184;2023-04-15T03:36:13;4.50;;;1.77;;
15899;SDS011;8048;50.644;6.184;2023-04-15T03:38:39;1.93;;;1.30;;
15899;SDS011;8048;50.644;6.184;2023-04-15T03:41:05;1.93;;;1.60;;
15899;SDS011;8048;50.644;6.184;2023-04-15T03:43:31;2.83;;;1.80;;
15899;SDS011;8048;50.644;6.184;2023-04-15T03:45:56;1.83;;;1.73;;
15899;SDS011;8048;50.644;6.184;2023-04-15T03:48:22;1.57;;;1.47;;
15899;SDS011;8048;50.644;6.184;2023-04-15T03:50:48;2.60;;;1.47;;
15899;SDS011;8048;50.644;6.184;2023-04-15T03:53:13;1.20;;;1.20;;
15899;SDS011;8048;50.644;6.184;2023-04-15T03:55:39;1.40;;;1.40;;
15899;SDS011;8048;50.644;6.184;2023-04-15T03:58:05;1.93;;;1.83;;
15899;SDS011;8048;50.644;6.184;2023-04-15T04:00:31;1.67;;;1.60;;
15899;SDS011;8048;50.644;6.184;2023-04-15T04:02:56;1.50;;;1.40;;
15899;SDS011;8048;50.644;6.184;2023-04-15T04:05:22;1.50;;;1.50;;
15899;SDS011;8048;50.644;6.184;2023-04-15T04:07:48;3.23;;;2.10;;
15899;SDS011;8048;50.644;6.184;2023-04-15T04:10:13;1.60;;;1.50;;
15899;SDS011;8048;50.644;6.184;2023-04-15T04:12:39;2.03;;;1.93;;
15899;SDS011;8048;50.644;6.184;2023-04-15T04:15:05;2.10;;;1.40;;
15899;SDS011;8048;50.644;6.184;2023-04-15T04:17:31;1.67;;;1.57;;
15899;SDS011;8048;50.644;6.184;2023-04-15T04:19:56;2.00;;;1.20;;
15899;SDS011;8048;50.644;6.184;2023-04-15T04:22:22;1.30;;;1.30;;
15899;SDS011;8048;50.644;6.184;2023-04-15T04:24:50;2.17;;;1.93;;
15899;SDS011;8048;50.644;6.184;2023-04-15T04:27:16;1.40;;;1.40;;
15899;SDS011;8048;50.644;6.184;2023-04-15T04:29:41;1.70;;;1.43;;
15899;SDS011;8048;50.644;6.184;2023-04-15T04:32:07;2.87;;;1.70;;
15899;SDS011;8048;50.644;6.184;2023-04-15T04:34:33;1.30;;;1.30;;
15899;SDS011;8048;50.644;6.184;2023-04-15T04:36:58;1.20;;;1.20;;
15899;SDS011;8048;50.644;6.184;2023-04-15T04:39:24;2.00;;;1.90;;
15899;SDS011;8048;50.644;6.184;2023-04-15T04:41:49;1.53;;;1.37;;
15899;SDS011;8048;50.644;6.184;2023-04-15T04:44:16;1.60;;;1.50;;
15899;SDS011;8048;50.644;6.184;2023-04-15T04:46:42;2.37;;;2.23;;
15899;SDS011;8048;50.644;6.184;2023-04-15T04:49:07;7.33;;;1.40;;
15899;SDS011;8048;50.644;6.184;2023-04-15T04:51:33;1.10;;;1.10;;
15899;SDS011;8048;50.644;6.184;2023-04-15T04:53:58;4.57;;;1.97;;
15899;SDS011;8048;50.644;6.184;2023-04-15T04:56:24;1.43;;;1.33;;
15899;SDS011;8048;50.644;6.184;2023-04-15T04:58:50;1.33;;;1.33;;
15899;SDS011;8048;50.644;6.184;2023-04-15T05:01:15;4.20;;;1.37;;
15899;SDS011;8048;50.644;6.184;2023-04-15T05:03:41;1.57;;;1.13;;
15899;SDS011;8048;50.644;6.184;2023-04-15T05:06:07;1.40;;;1.40;;
15899;SDS011;8048;50.644;6.184;2023-04-15T05:08:32;1.53;;;1.30;;
15899;SDS011;8048;50.644;6.184;2023-04-15T05:10:58;1.13;;;1.13;;
15899;SDS011;8048;50.644;6.184;2023-04-15T05:13:24;1.20;;;1.20;;
15899;SDS011;8048;50.644;6.184;2023-04-15T05:15:50;1.50;;;1.40;;
15899;SDS011;8048;50.644;6.184;2023-04-15T05:18:15;1.93;;;1.60;;
15899;SDS011;8048;50.644;6.184;2023-04-15T05:20:41;3.60;;;1.80;;
15899;SDS011;8048;50.644;6.184;2023-04-15T05:23:06;2.40;;;2.20;;
15899;SDS011;8048;50.644;6.184;2023-04-15T05:25:32;1.93;;;1.70;;
15899;SDS011;8048;50.644;6.184;2023-04-15T05:27:58;3.83;;;1.60;;
15899;SDS011;8048;50.644;6.184;2023-04-15T05:30:24;1.50;;;1.50;;
15899;SDS011;8048;50.644;6.184;2023-04-15T05:32:49;1.20;;;1.20;;
15899;SDS011;8048;50.644;6.184;2023-04-15T05:35:15;1.37;;;1.37;;
15899;SDS011;8048;50.644;6.184;2023-04-15T05:37:41;1.70;;;1.60;;
15899;SDS011;8048;50.644;6.184;2023-04-15T05:40:07;2.27;;;1.50;;
15899;SDS011;8048;50.644;6.184;2023-04-15T05:42:34;1.90;;;1.40;;
15899;SDS011;8048;50.644;6.184;2023-04-15T05:45:00;1.67;;;1.20;;
15899;SDS011;8048;50.644;6.184;2023-04-15T05:47:29;1.67;;;1.57;;
15899;SDS011;8048;50.644;6.184;2023-04-15T05:49:54;2.13;;;2.00;;
15899;SDS011;8048;50.644;6.184;2023-04-15T05:52:20;1.50;;;1.40;;
15899;SDS011;8048;50.644;6.184;2023-04-15T05:54:46;1.50;;;1.40;;
15899;SDS011;8048;50.644;6.184;2023-04-15T05:57:11;1.83;;;1.70;;
15899;SDS011;8048;50.644;6.184;2023-04-15T05:59:37;2.40;;;1.60;;
15899;SDS011;8048;50.644;6.184;2023-04-15T06:02:03;1.30;;;1.30;;
15899;SDS011;8048;50.644;6.184;2023-04-15T06:04:28;1.60;;;1.53;;
15899;SDS011;8048;50.644;6.184;2023-04-15T06:06:54;2.80;;;2.60;;
15899;SDS011;8048;50.644;6.184;2023-04-15T06:09:20;2.30;;;2.20;;
15899;SDS011;8048;50.644;6.184;2023-04-15T06:11:45;3.30;;;3.10;;
15899;SDS011;8048;50.644;6.184;2023-04-15T06:14:11;4.23;;;3.90;;
15899;SDS011;8048;50.644;6.184;2023-04-15T06:16:36;3.20;;;3.00;;
15899;SDS011;8048;50.644;6.184;2023-04-15T06:19:02;2.80;;;2.50;;
15899;SDS011;8048;50.644;6.184;2023-04-15T06:21:28;2.70;;;2.50;;
15899;SDS011;8048;50.644;6.184;2023-04-15T06:23:55;3.10;;;2.90;;
15899;SDS011;8048;50.644;6.184;2023-04-15T06:26:20;2.63;;;2.33;;
15899;SDS011;8048;50.644;6.184;2023-04-15T06:28:46;4.40;;;2.53;;
15899;SDS011;8048;50.644;6.184;2023-04-15T06:31:11;2.77;;;2.50;;
15899;SDS011;8048;50.644;6.184;2023-04-15T06:33:37;2.27;;;2.17;;
15899;SDS011;8048;50.644;6.184;2023-04-15T06:36:03;1.83;;;1.73;;
15899;SDS011;8048;50.644;6.184;2023-04-15T06:38:29;2.20;;;2.07;;
15899;SDS011;8048;50.644;6.184;2023-04-15T06:40:54;1.90;;;1.70;;
15899;SDS011;8048;50.644;6.184;2023-04-15T06:43:20;1.60;;;1.50;;
15899;SDS011;8048;50.644;6.184;2023-04-15T06:45:45;3.03;;;2.23;;
15899;SDS011;8048;50.644;6.184;2023-04-15T06:48:11;1.67;;;1.63;;
15899;SDS011;8048;50.644;6.184;2023-04-15T06:50:37;1.50;;;1.50;;
15899;SDS011;8048;50.644;6.184;2023-04-15T06:53:02;1.33;;;1.23;;
15899;SDS011;8048;50.644;6.184;2023-04-15T06:55:28;1.37;;;1.37;;
15899;SDS011;8048;50.644;6.184;2023-04-15T06:57:53;1.80;;;1.70;;
15899;SDS011;8048;50.644;6.184;2023-04-15T07:00:19;2.03;;;1.93;;
15899;SDS011;8048;50.644;6.184;2023-04-15T07:02:45;1.90;;;1.80;;
15899;SDS011;8048;50.644;6.184;2023-04-15T07:05:10;2.13;;;1.93;;
15899;SDS011;8048;50.644;6.184;2023-04-15T07:07:36;3.30;;;2.30;;
15899;SDS011;8048;50.644;6.184;2023-04-15T07:10:02;2.53;;;2.43;;
15899;SDS011;8048;50.644;6.184;2023-04-15T07:12:28;2.73;;;1.83;;
15899;SDS011;8048;50.644;6.184;2023-04-15T07:14:53;1.77;;;1.70;;
15899;SDS011;8048;50.644;6.184;2023-04-15T07:17:19;2.43;;;2.23;;
15899;SDS011;8048;50.644;6.184;2023-04-15T07:19:45;5.97;;;4.00;;
15899;SDS011;8048;50.644;6.184;2023-04-15T07:22:11;7.63;;;4.20;;
15899;SDS011;8048;50.644;6.184;2023-04-15T07:24:37;3.87;;;3.57;;
15899;SDS011;8048;50.644;6.184;2023-04-15T07:27:02;3.47;;;3.27;;
15899;SDS011;8048;50.644;6.184;2023-04-15T07:29:28;3.67;;;3.37;;
15899;SDS011;8048;50.644;6.184;2023-04-15T07:31:53;2.80;;;2.57;;
15899;SDS011;8048;50.644;6.184;2023-04-15T07:34:21;1.87;;;1.73;;
15899;SDS011;8048;50.644;6.184;2023-04-15T07:36:46;2.10;;;2.00;;
15899;SDS011;8048;50.644;6.184;2023-04-15T07:39:16;3.07;;;2.63;;
15899;SDS011;8048;50.644;6.184;2023-04-15T07:41:42;1.60;;;1.50;;
15899;SDS011;8048;50.644;6.184;2023-04-15T07:44:07;2.00;;;1.90;;
15899;SDS011;8048;50.644;6.184;2023-04-15T07:46:33;3.00;;;2.20;;
15899;SDS011;8048;50.644;6.184;2023-04-15T07:48:58;2.30;;;1.93;;
15899;SDS011;8048;50.644;6.184;2023-04-15T07:51:24;3.50;;;2.33;;
15899;SDS011;8048;50.644;6.184;2023-04-15T07:53:50;2.57;;;2.37;;
15899;SDS011;8048;50.644;6.184;2023-04-15T07:56:15;4.53;;;1.77;;
15899;SDS011;8048;50.644;6.184;2023-04-15T07:58:41;4.40;;;1.90;;
15899;SDS011;8048;50.644;6.184;2023-04-15T08:01:07;2.17;;;2.00;;
15899;SDS011;8048;50.644;6.184;2023-04-15T08:03:33;2.13;;;2.03;;
15899;SDS011;8048;50.644;6.184;2023-04-15T08:05:58;2.87;;;2.67;;
15899;SDS011;8048;50.644;6.184;2023-04-15T08:08:24;5.13;;;2.10;;
15899;SDS011;8048;50.644;6.184;2023-04-15T08:10:50;3.07;;;2.40;;
15899;SDS011;8048;50.644;6.184;2023-04-15T08:13:16;7.37;;;2.57;;
15899;SDS011;8048;50.644;6.184;2023-04-15T08:15:41;3.83;;;2.20;;
15899;SDS011;8048;50.644;6.184;2023-04-15T08:18:07;2.40;;;2.20;;
15899;SDS011;8048;50.644;6.184;2023-04-15T08:20:32;3.50;;;3.20;;
15899;SDS011;8048;50.644;6.184;2023-04-15T08:22:58;2.43;;;2.33;;
15899;SDS011;8048;50.644;6.184;2023-04-15T08:25:24;3.50;;;2.47;;
15899;SDS011;8048;50.644;6.184;2023-04-15T08:27:49;3.43;;;3.23;;
15899;SDS011;8048;50.644;6.184;2023-04-15T08:30:15;5.30;;;3.40;;
15899;SDS011;8048;50.644;6.184;2023-04-15T08:32:41;7.10;;;3.23;;
15899;SDS011;8048;50.644;6.184;2023-04-15T08:35:10;4.77;;;3.40;;
15899;SDS011;8048;50.644;6.184;2023-04-15T08:37:35;3.00;;;2.73;;
15899;SDS011;8048;50.644;6.184;2023-04-15T08:40:01;7.80;;;4.30;;
15899;SDS011;8048;50.644;6.184;2023-04-15T08:42:28;8.70;;;3.80;;
15899;SDS011;8048;50.644;6.184;2023-04-15T08:45:00;3.77;;;3.57;;
15899;SDS011;8048;50.644;6.184;2023-04-15T08:47:29;4.47;;;4.10;;
15899;SDS011;8048;50.644;6.184;2023-04-15T08:49:58;6.90;;;5.17;;
15899;SDS011;8048;50.644;6.184;2023-04-15T08:52:26;3.97;;;3.67;;
15899;SDS011;8048;50.644;6.184;2023-04-15T08:54:56;3.90;;;3.60;;
15899;SDS011;8048;50.644;6.184;2023-04-15T08:57:25;5.83;;;5.33;;
15899;SDS011;8048;50.644;6.184;2023-04-15T08:59:51;5.40;;;4.20;;
15899;SDS011;8048;50.644;6.184;2023-04-15T09:02:18;6.93;;;4.40;;
15899;SDS011;8048;50.644;6.184;2023-04-15T09:04:43;4.20;;;3.90;;
15899;SDS011;8048;50.644;6.184;2023-04-15T09:07:09;5.10;;;4.70;;
15899;SDS011;8048;50.644;6.184;2023-04-15T09:09:34;9.53;;;4.40;;
15899;SDS011;8048;50.644;6.184;2023-04-15T09:12:01;3.77;;;3.47;;
15899;SDS011;8048;50.644;6.184;2023-04-15T09:14:27;4.13;;;3.83;;
15899;SDS011;8048;50.644;6.184;2023-04-15T09:16:59;5.77;;;4.10;;
15899;SDS011;8048;50.644;6.184;2023-04-15T09:19:26;4.57;;;4.17;;
15899;SDS011;8048;50.644;6.184;2023-04-15T09:21:52;4.63;;;4.20;;
15899;SDS011;8048;50.644;6.184;2023-04-15T09:24:20;5.47;;;4.97;;
15899;SDS011;8048;50.644;6.184;2023-04-15T09:26:46;4.73;;;4.43;;
15899;SDS011;8048;50.644;6.184;2023-04-15T09:29:12;6.07;;;4.27;;
15899;SDS011;8048;50.644;6.184;2023-04-15T09:31:38;4.83;;;4.43;;
15899;SDS011;8048;50.644;6.184;2023-04-15T09:34:04;5.27;;;4.77;;
15899;SDS011;8048;50.644;6.184;2023-04-15T09:39:11;4.50;;;4.17;;
15899;SDS011;8048;50.644;6.184;2023-04-15T09:41:37;4.23;;;4.00;;
15899;SDS011;8048;50.644;6.184;2023-04-15T09:44:03;4.40;;;4.00;;
15899;SDS011;8048;50.644;6.184;2023-04-15T09:46:44;4.60;;;4.20;;
15899;SDS011;8048;50.644;6.184;2023-04-15T09:49:11;5.77;;;5.10;;
15899;SDS011;8048;50.644;6.184;2023-04-15T09:51:37;4.70;;;4.30;;
15899;SDS011;8048;50.644;6.184;2023-04-15T09:54:03;4.90;;;4.40;;
15899;SDS011;8048;50.644;6.184;2023-04-15T09:56:35;4.40;;;3.70;;
15899;SDS011;8048;50.644;6.184;2023-04-15T09:59:05;5.43;;;4.93;;
15899;SDS011;8048;50.644;6.184;2023-04-15T10:01:32;4.80;;;3.90;;
15899;SDS011;8048;50.644;6.184;2023-04-15T10:03:58;4.57;;;4.27;;
15899;SDS011;8048;50.644;6.184;2023-04-15T10:06:30;5.63;;;4.00;;
15899;SDS011;8048;50.644;6.184;2023-04-15T10:08:59;4.53;;;4.23;;
15899;SDS011;8048;50.644;6.184;2023-04-15T10:11:28;5.57;;;5.10;;
15899;SDS011;8048;50.644;6.184;2023-04-15T10:13:56;6.00;;;5.50;;
15899;SDS011;8048;50.644;6.184;2023-04-15T10:16:22;6.43;;;5.50;;
15899;SDS011;8048;50.644;6.184;2023-04-15T10:18:55;6.07;;;5.57;;
15899;SDS011;8048;50.644;6.184;2023-04-15T10:21:22;6.40;;;5.80;;
15899;SDS011;8048;50.644;6.184;2023-04-15T10:23:48;5.93;;;5.40;;
15899;SDS011;8048;50.644;6.184;2023-04-15T10:26:15;6.57;;;6.00;;
15899;SDS011;8048;50.644;6.184;2023-04-15T10:28:41;9.90;;;6.50;;
15899;SDS011;8048;50.644;6.184;2023-04-15T10:31:08;7.13;;;6.43;;
15899;SDS011;8048;50.644;6.184;2023-04-15T10:33:38;6.70;;;6.30;;
15899;SDS011;8048;50.644;6.184;2023-04-15T10:36:05;9.03;;;5.40;;
15899;SDS011;8048;50.644;6.184;2023-04-15T10:38:35;10.63;;;6.20;;
15899;SDS011;8048;50.644;6.184;2023-04-15T10:41:21;7.80;;;4.87;;
15899;SDS011;8048;50.644;6.184;2023-04-15T10:46:23;4.77;;;4.37;;
15899;SDS011;8048;50.644;6.184;2023-04-15T10:49:08;5.27;;;4.77;;
15899;SDS011;8048;50.644;6.184;2023-04-15T10:51:38;5.57;;;5.17;;
15899;SDS011;8048;50.644;6.184;2023-04-15T10:54:16;5.47;;;5.07;;
15899;SDS011;8048;50.644;6.184;2023-04-15T10:56:49;4.60;;;4.30;;
15899;SDS011;8048;50.644;6.184;2023-04-15T10:59:16;5.03;;;4.63;;
15899;SDS011;8048;50.644;6.184;2023-04-15T11:01:52;5.00;;;4.60;;
15899;SDS011;8048;50.644;6.184;2023-04-15T11:12:42;4.97;;;4.47;;
15899;SDS011;8048;50.644;6.184;2023-04-15T11:15:28;4.50;;;3.97;;
15899;SDS011;8048;50.644;6.184;2023-04-15T11:20:35;5.50;;;5.03;;
15899;SDS011;8048;50.644;6.184;2023-04-15T11:23:01;6.00;;;5.60;;
15899;SDS011;8048;50.644;6.184;2023-04-15T11:25:28;6.03;;;5.53;;
15899;SDS011;8048;50.644;6.184;2023-04-15T11:27:55;8.53;;;7.83;;
15899;SDS011;8048;50.644;6.184;2023-04-15T11:30:31;6.70;;;6.00;;
15899;SDS011;8048;50.644;6.184;2023-04-15T11:32:59;7.00;;;6.30;;
15899;SDS011;8048;50.644;6.184;2023-04-15T11:35:26;5.87;;;5.27;;
15899;SDS011;8048;50.644;6.184;2023-04-15T11:37:52;6.03;;;5.53;;
15899;SDS011;8048;50.644;6.184;2023-04-15T11:40:22;5.30;;;4.90;;
15899;SDS011;8048;50.644;6.184;2023-04-15T11:43:05;4.83;;;4.53;;
15899;SDS011;8048;50.644;6.184;2023-04-15T11:45:32;4.03;;;3.60;;
15899;SDS011;8048;50.644;6.184;2023-04-15T11:48:33;3.97;;;3.73;;
15899;SDS011;8048;50.644;6.184;2023-04-15T11:51:00;4.47;;;4.07;;
15899;SDS011;8048;50.644;6.184;2023-04-15T11:56:05;4.60;;;4.30;;
15899;SDS011;8048;50.644;6.184;2023-04-15T11:58:33;5.07;;;4.67;;
15899;SDS011;8048;50.644;6.184;2023-04-15T12:01:01;5.77;;;5.27;;
15899;SDS011;8048;50.644;6.184;2023-04-15T12:03:38;4.97;;;4.60;;
15899;SDS011;8048;50.644;6.184;2023-04-15T12:06:08;4.80;;;4.40;;
15899;SDS011;8048;50.644;6.184;2023-04-15T12:11:45;4.00;;;3.70;;
15899;SDS011;8048;50.644;6.184;2023-04-15T12:16:47;3.50;;;3.20;;
15899;SDS011;8048;50.644;6.184;2023-04-15T12:19:15;4.07;;;3.77;;
15899;SDS011;8048;50.644;6.184;2023-04-15T12:21:52;3.60;;;3.40;;
15899;SDS011;8048;50.644;6.184;2023-04-15T12:24:22;4.43;;;4.17;;
15899;SDS011;8048;50.644;6.184;2023-04-15T12:26:49;4.17;;;3.97;;
15899;SDS011;8048;50.644;6.184;2023-04-15T12:29:17;4.03;;;3.43;;
15899;SDS011;8048;50.644;6.184;2023-04-15T12:31:49;4.33;;;3.70;;
15899;SDS011;8048;50.644;6.184;2023-04-15T12:34:17;4.73;;;4.43;;
15899;SDS011;8048;50.644;6.184;2023-04-15T12:36:49;4.70;;;4.30;;
15899;SDS011;8048;50.644;6.184;2023-04-15T12:39:15;4.73;;;4.33;;
15899;SDS011;8048;50.644;6.184;2023-04-15T12:41:41;5.00;;;4.53;;
15899;SDS011;8048;50.644;6.184;2023-04-15T12:44:07;4.17;;;3.87;;
15899;SDS011;8048;50.644;6.184;2023-04-15T12:46:32;4.03;;;3.73;;
15899;SDS011;8048;50.644;6.184;2023-04-15T12:48:58;4.63;;;4.10;;
15899;SDS011;8048;50.644;6.184;2023-04-15T12:51:24;4.10;;;3.80;;
15899;SDS011;8048;50.644;6.184;2023-04-15T12:53:51;4.70;;;4.40;;
15899;SDS011;8048;50.644;6.184;2023-04-15T12:56:17;4.27;;;4.00;;
15899;SDS011;8048;50.644;6.184;2023-04-15T12:58:42;4.70;;;4.20;;
15899;SDS011;8048;50.644;6.184;2023-04-15T13:01:08;4.10;;;3.80;;
15899;SDS011;8048;50.644;6.184;2023-04-15T13:03:34;4.77;;;4.30;;
15899;SDS011;8048;50.644;6.184;2023-04-15T13:06:00;5.20;;;4.60;;
15899;SDS011;8048;50.644;6.184;2023-04-15T13:08:26;3.23;;;3.03;;
15899;SDS011;8048;50.644;6.184;2023-04-15T13:10:52;4.43;;;4.03;;
15899;SDS011;8048;50.644;6.184;2023-04-15T13:13:17;5.03;;;4.63;;
15899;SDS011;8048;50.644;6.184;2023-04-15T13:15:43;4.37;;;4.03;;
15899;SDS011;8048;50.644;6.184;2023-04-15T13:18:09;4.70;;;4.40;;
15899;SDS011;8048;50.644;6.184;2023-04-15T13:20:35;5.13;;;4.63;;
15899;SDS011;8048;50.644;6.184;2023-04-15T13:23:01;4.03;;;3.70;;
15899;SDS011;8048;50.644;6.184;2023-04-15T13:25:26;4.67;;;4.27;;
15899;SDS011;8048;50.644;6.184;2023-04-15T13:27:52;4.53;;;4.17;;
15899;SDS011;8048;50.644;6.184;2023-04-15T13:30:17;4.37;;;3.93;;
15899;SDS011;8048;50.644;6.184;2023-04-15T13:32:43;4.70;;;4.43;;
15899;SDS011;8048;50.644;6.184;2023-04-15T13:35:09;4.63;;;4.23;;
15899;SDS011;8048;50.644;6.184;2023-04-15T13:37:34;3.90;;;3.70;;
15899;SDS011;8048;50.644;6.184;2023-04-15T13:40:00;4.60;;;4.30;;
15899;SDS011;8048;50.644;6.184;2023-04-15T13:42:26;4.23;;;3.93;;
15899;SDS011;8048;50.644;6.184;2023-04-15T13:44:51;3.80;;;3.60;;
15899;SDS011;8048;50.644;6.184;2023-04-15T13:47:20;5.03;;;4.67;;
15899;SDS011;8048;50.644;6.184;2023-04-15T13:49:46;5.80;;;4.80;;
15899;SDS011;8048;50.644;6.184;2023-04-15T13:52:11;5.03;;;4.60;;
15899;SDS011;8048;50.644;6.184;2023-04-15T13:54:37;4.57;;;4.27;;
15899;SDS011;8048;50.644;6.184;2023-04-15T13:57:03;6.03;;;5.43;;
15899;SDS011;8048;50.644;6.184;2023-04-15T13:59:29;4.43;;;4.13;;
15899;SDS011;8048;50.644;6.184;2023-04-15T14:01:55;4.20;;;3.90;;
15899;SDS011;8048;50.644;6.184;2023-04-15T14:04:21;4.80;;;4.40;;
15899;SDS011;8048;50.644;6.184;2023-04-15T14:06:46;3.83;;;3.53;;
15899;SDS011;8048;50.644;6.184;2023-04-15T14:09:12;8.03;;;3.50;;
15899;SDS011;8048;50.644;6.184;2023-04-15T14:11:38;4.43;;;3.70;;
15899;SDS011;8048;50.644;6.184;2023-04-15T14:14:04;4.73;;;4.23;;
15899;SDS011;8048;50.644;6.184;2023-04-15T14:16:31;4.47;;;4.17;;
15899;SDS011;8048;50.644;6.184;2023-04-15T14:18:57;3.83;;;3.43;;
15899;SDS011;8048;50.644;6.184;2023-04-15T14:21:23;3.47;;;3.17;;
15899;SDS011;8048;50.644;6.184;2023-04-15T14:23:48;4.00;;;3.57;;
15899;SDS011;8048;50.644;6.184;2023-04-15T14:26:14;3.87;;;3.57;;
15899;SDS011;8048;50.644;6.184;2023-04-15T14:28:39;3.50;;;3.30;;
15899;SDS011;8048;50.644;6.184;2023-04-15T14:31:06;4.10;;;3.90;;
15899;SDS011;8048;50.644;6.184;2023-04-15T14:33:32;4.67;;;4.37;;
15899;SDS011;8048;50.644;6.184;2023-04-15T14:35:57;4.00;;;3.70;;
15899;SDS011;8048;50.644;6.184;2023-04-15T14:38:23;4.10;;;3.80;;
15899;SDS011;8048;50.644;6.184;2023-04-15T14:40:48;4.70;;;4.40;;
15899;SDS011;8048;50.644;6.184;2023-04-15T14:43:14;4.13;;;3.90;;
15899;SDS011;8048;50.644;6.184;2023-04-15T14:45:40;3.93;;;3.67;;
15899;SDS011;8048;50.644;6.184;2023-04-15T14:48:05;4.97;;;4.67;;
15899;SDS011;8048;50.644;6.184;2023-04-15T14:50:33;4.93;;;4.53;;
15899;SDS011;8048;50.644;6.184;2023-04-15T14:52:59;7.20;;;6.60;;
15899;SDS011;8048;50.644;6.184;2023-04-15T14:55:25;5.67;;;5.23;;
15899;SDS011;8048;50.644;6.184;2023-04-15T14:57:51;7.20;;;5.00;;
15899;SDS011;8048;50.644;6.184;2023-04-15T15:00:16;4.27;;;3.87;;
15899;SDS011;8048;50.644;6.184;2023-04-15T15:02:42;4.23;;;3.93;;
15899;SDS011;8048;50.644;6.184;2023-04-15T15:05:08;4.37;;;4.07;;
15899;SDS011;8048;50.644;6.184;2023-04-15T15:07:34;3.30;;;3.10;;
15899;SDS011;8048;50.644;6.184;2023-04-15T15:10:01;4.50;;;4.20;;
15899;SDS011;8048;50.644;6.184;2023-04-15T15:12:26;3.70;;;3.40;;
15899;SDS011;8048;50.644;6.184;2023-04-15T15:14:53;4.00;;;3.70;;
15899;SDS011;8048;50.644;6.184;2023-04-15T15:17:19;4.77;;;4.00;;
15899;SDS011;8048;50.644;6.184;2023-04-15T15:19:45;4.13;;;3.83;;
15899;SDS011;8048;50.644;6.184;2023-04-15T15:22:10;4.70;;;3.97;;